Time;durP1;ratioP1;P1;durP2;ratioP2;P2;SDS_P1;SDS_P2;PMS_P1;PMS_P2;Temp;Humidity;BMP_temperature;BMP_pressure;BME280_temperature;BME280_humidity;BME280_pressure;Samples;Min_cycle;Max_cycle;Signal;HPM_P1;HPM_P2
2021/11/04 00:02:06;;;;;;;2.35;2.15;;;8.10;84.50;;;;;;5015941;28;20038;-67
2021/11/04 00:04:32;;;;;;;1.90;1.80;;;8.10;85.30;;;;;;5015594;28;20452;-67
2021/11/04 00:06:58;;;;;;;2.10;2.00;;;8.10;84.60;;;;;;5016620;28;20033;-66
2021/11/04 00:09:24;;;;;;;2.28;2.13;;;8.10;84.50;;;;;;5016696;28;20072;-67
2021/11/04 00:11:50;;;;;;;2.42;2.08;;;8.10;84.50;;;;;;5012302;28;20033;-67
2021/11/04 00:14:15;;;;;;;2.13;2.03;;;8.10;84.50;;;;;;5016530;28;20677;-67
2021/11/04 00:16:41;;;;;;;2.10;1.90;;;8.10;84.50;;;;;;5016546;28;20038;-67
2021/11/04 00:19:07;;;;;;;2.10;1.90;;;8.10;84.60;;;;;;5015981;28;20116;-67
2021/11/04 00:21:32;;;;;;;1.98;1.88;;;8.00;84.50;;;;;;5017463;28;20501;-67
2021/11/04 00:23:58;;;;;;;2.00;1.88;;;8.00;84.50;;;;;;5016185;28;20045;-67
2021/11/04 00:26:24;;;;;;;2.03;1.90;;;8.00;84.50;;;;;;5016214;28;20037;-68
2021/11/04 00:28:49;;;;;;;2.15;1.95;;;8.00;84.60;;;;;;5015078;28;20052;-67
2021/11/04 00:31:15;;;;;;;2.20;2.00;;;8.10;84.70;;;;;;5016223;28;20246;-67
2021/11/04 00:33:43;;;;;;;2.10;2.00;;;8.00;84.70;;;;;;5017776;28;20045;-67
2021/11/04 00:36:09;;;;;;;2.00;1.90;;;8.00;84.70;;;;;;5013921;28;20120;-67
2021/11/04 00:38:35;;;;;;;1.80;1.70;;;8.10;84.80;;;;;;5017119;28;20160;-67
2021/11/04 00:41:01;;;;;;;1.75;1.65;;;8.10;84.80;;;;;;5016973;28;20052;-67
2021/11/04 00:43:26;;;;;;;1.90;1.80;;;8.10;84.70;;;;;;5016811;28;20184;-67
2021/11/04 00:45:52;;;;;;;1.75;1.65;;;8.10;84.60;;;;;;5014229;28;20509;-67
2021/11/04 00:48:17;;;;;;;2.10;1.90;;;8.10;85.40;;;;;;5015797;28;20047;-67
2021/11/04 00:50:43;;;;;;;1.77;1.67;;;8.10;84.50;;;;;;5016369;28;20044;-67
2021/11/04 00:53:09;;;;;;;1.80;1.70;;;8.10;84.50;;;;;;5015693;28;20100;-67
2021/11/04 00:55:34;;;;;;;2.90;1.98;;;8.20;84.50;;;;;;5011165;28;20076;-67
2021/11/04 00:58:00;;;;;;;1.95;1.85;;;8.20;84.50;;;;;;5015635;28;20034;-67
2021/11/04 01:00:26;;;;;;;1.95;1.85;;;8.20;84.50;;;;;;5008392;28;20045;-67
2021/11/04 01:02:51;;;;;;;1.98;1.88;;;8.20;84.50;;;;;;5013378;28;20580;-67
2021/11/04 01:05:17;;;;;;;1.85;1.73;;;8.20;84.50;;;;;;5009520;28;20485;-64
2021/11/04 01:07:43;;;;;;;2.00;1.90;;;8.20;84.50;;;;;;5012729;28;20029;-67
2021/11/04 01:10:09;;;;;;;2.40;2.15;;;8.20;84.50;;;;;;5011591;28;20527;-67
2021/11/04 01:12:35;;;;;;;2.20;2.00;;;8.20;84.50;;;;;;5004388;28;20045;-67
2021/11/04 01:15:01;;;;;;;2.10;2.00;;;8.20;85.40;;;;;;5009825;28;20034;-67
2021/11/04 01:17:28;;;;;;;2.20;2.00;;;8.20;84.50;;;;;;5010788;28;20650;-67
2021/11/04 01:19:53;;;;;;;1.75;1.65;;;8.20;84.30;;;;;;5013886;28;20180;-67
2021/11/04 01:22:20;;;;;;;2.00;1.90;;;8.30;84.40;;;;;;5011435;28;20714;-67
2021/11/04 01:24:45;;;;;;;1.80;1.70;;;8.30;84.30;;;;;;5010290;28;20053;-67
2021/11/04 01:27:11;;;;;;;1.90;1.80;;;8.30;84.30;;;;;;5012462;28;20029;-67
2021/11/04 01:29:37;;;;;;;1.70;1.60;;;8.30;84.10;;;;;;5012130;28;20083;-67
2021/11/04 01:32:03;;;;;;;1.80;1.65;;;8.30;84.10;;;;;;5011581;28;20037;-67
2021/11/04 01:34:28;;;;;;;2.00;1.90;;;8.30;84.00;;;;;;5010248;28;20072;-67
2021/11/04 01:36:54;;;;;;;1.80;1.70;;;8.30;84.00;;;;;;5009217;28;20073;-67
2021/11/04 01:39:20;;;;;;;1.92;1.83;;;8.30;84.00;;;;;;5011421;28;20033;-67
2021/11/04 01:41:46;;;;;;;1.70;1.60;;;8.30;84.00;;;;;;5010838;28;20048;-67
2021/11/04 01:44:11;;;;;;;2.15;1.92;;;8.30;83.90;;;;;;5010770;28;20544;-67
2021/11/04 01:46:37;;;;;;;1.90;1.80;;;8.40;84.00;;;;;;5009829;28;20045;-67
2021/11/04 01:49:03;;;;;;;1.98;1.88;;;8.30;84.00;;;;;;5008965;28;20049;-67
2021/11/04 01:51:29;;;;;;;2.03;1.92;;;8.40;83.90;;;;;;5010295;28;20037;-67
2021/11/04 01:53:54;;;;;;;2.00;1.90;;;8.40;83.90;;;;;;5009915;28;20048;-67
2021/11/04 01:56:20;;;;;;;2.15;1.95;;;8.40;83.80;;;;;;5010744;28;20068;-68
2021/11/04 01:58:46;;;;;;;2.40;2.20;;;8.40;83.70;;;;;;5011768;28;20041;-68
2021/11/04 02:01:15;;;;;;;2.65;1.83;;;8.40;83.70;;;;;;5004827;28;20041;-66
2021/11/04 02:03:53;;;;;;;2.30;2.10;;;8.40;83.70;;;;;;5007660;28;20030;-66
2021/11/04 02:06:24;;;;;;;2.15;2.05;;;8.40;83.60;;;;;;5007727;28;20083;-66
2021/11/04 02:09:06;;;;;;;2.42;2.22;;;8.40;83.70;;;;;;5010554;28;20034;-67
2021/11/04 02:11:43;;;;;;;2.17;1.98;;;8.40;83.60;;;;;;5004252;28;20034;-67
2021/11/04 02:14:24;;;;;;;2.53;2.33;;;8.40;83.50;;;;;;5007718;28;20037;-67
2021/11/04 02:16:52;;;;;;;2.42;2.22;;;8.40;83.50;;;;;;5009297;28;20692;-67
2021/11/04 02:19:56;;;;;;;2.40;2.20;;;8.40;83.50;;;;;;5010415;28;20037;-67
2021/11/04 02:22:27;;;;;;;2.80;2.60;;;8.40;83.60;;;;;;4997402;28;20116;-66
2021/11/04 02:25:10;;;;;;;2.85;2.55;;;8.30;83.60;;;;;;5006794;28;20417;-67
2021/11/04 02:27:48;;;;;;;3.95;2.58;;;8.40;83.70;;;;;;5005947;28;20116;-67
2021/11/04 02:30:15;;;;;;;3.17;2.88;;;8.30;83.60;;;;;;5025280;28;20045;-67
2021/11/04 02:32:41;;;;;;;2.70;2.50;;;8.40;83.80;;;;;;5008166;28;20088;-67
2021/11/04 02:35:08;;;;;;;2.72;2.53;;;8.30;83.80;;;;;;5006837;28;20100;-67
2021/11/04 02:37:34;;;;;;;3.00;2.70;;;8.30;83.80;;;;;;5007024;28;20042;-67
2021/11/04 02:40:00;;;;;;;3.20;2.70;;;8.30;84.00;;;;;;5010371;28;20069;-67
2021/11/04 02:42:27;;;;;;;6.60;3.10;;;8.30;84.00;;;;;;5010422;28;20030;-67
2021/11/04 02:44:53;;;;;;;3.75;3.15;;;8.30;84.00;;;;;;5013316;28;20526;-67
2021/11/04 02:47:19;;;;;;;3.42;3.13;;;8.30;84.00;;;;;;5007261;28;20049;-67
2021/11/04 02:49:48;;;;;;;3.60;3.30;;;8.30;84.00;;;;;;5010942;28;20902;-67
2021/11/04 02:52:14;;;;;;;3.80;3.28;;;8.30;84.10;;;;;;5007803;28;20044;-66
2021/11/04 02:54:53;;;;;;;3.85;3.30;;;8.30;84.10;;;;;;5004601;28;20693;-67
2021/11/04 02:57:19;;;;;;;3.97;3.58;;;8.30;84.40;;;;;;5013343;28;20492;-67
2021/11/04 02:59:47;;;;;;;4.05;3.40;;;8.30;84.30;;;;;;5009348;28;20052;-66
2021/11/04 03:02:13;;;;;;;4.15;3.70;;;8.30;84.30;;;;;;5008329;28;20064;-67
2021/11/04 03:04:39;;;;;;;6.25;3.58;;;8.30;84.30;;;;;;5007485;28;20038;-67
2021/11/04 03:07:04;;;;;;;4.10;3.60;;;8.30;84.30;;;;;;5009166;28;20044;-67
2021/11/04 03:09:30;;;;;;;3.80;3.50;;;8.40;84.30;;;;;;5004652;28;20038;-66
2021/11/04 03:11:56;;;;;;;4.00;3.58;;;8.30;84.30;;;;;;5008637;28;20053;-67
2021/11/04 03:14:21;;;;;;;4.13;3.70;;;8.40;84.20;;;;;;5015086;28;20063;-67
2021/11/04 03:16:52;;;;;;;3.88;3.58;;;8.40;84.10;;;;;;5014074;28;20041;-67
2021/11/04 03:19:19;;;;;;;5.22;4.07;;;8.40;84.00;;;;;;5011077;28;20121;-69
2021/11/04 03:21:49;;;;;;;3.50;3.20;;;8.30;84.00;;;;;;5015049;28;20126;-67
2021/11/04 03:24:18;;;;;;;3.95;3.45;;;8.30;83.80;;;;;;5014230;28;20104;-67
2021/11/04 03:26:46;;;;;;;3.97;3.67;;;8.30;83.80;;;;;;5006699;28;20449;-67
2021/11/04 03:29:14;;;;;;;3.58;3.28;;;8.30;83.90;;;;;;5009638;28;20052;-67
2021/11/04 03:31:41;;;;;;;4.60;4.03;;;8.30;84.00;;;;;;5015764;28;20069;-67
2021/11/04 03:34:09;;;;;;;6.20;3.90;;;8.30;84.00;;;;;;5011846;28;20064;-67
2021/11/04 03:36:35;;;;;;;8.07;4.22;;;8.30;84.10;;;;;;5015250;28;20034;-67
2021/11/04 03:39:01;;;;;;;4.97;4.55;;;8.30;84.10;;;;;;5015756;28;20040;-66
2021/11/04 03:41:28;;;;;;;4.60;4.20;;;8.30;84.10;;;;;;5015006;28;20075;-66
2021/11/04 03:43:54;;;;;;;4.63;3.97;;;8.30;84.10;;;;;;5011710;28;20072;-66
2021/11/04 03:46:20;;;;;;;4.43;4.05;;;8.30;84.10;;;;;;5012561;28;20689;-66
2021/11/04 03:48:47;;;;;;;5.10;4.28;;;8.30;84.10;;;;;;5012188;28;20684;-68
2021/11/04 03:51:13;;;;;;;4.43;4.03;;;8.30;84.10;;;;;;5018997;28;20424;-66
2021/11/04 03:53:40;;;;;;;3.72;3.33;;;8.30;84.00;;;;;;5013359;28;20168;-66
2021/11/04 03:56:06;;;;;;;2.67;2.20;;;8.30;83.60;;;;;;5010285;28;20038;-66
2021/11/04 03:58:37;;;;;;;1.50;1.33;;;8.20;82.90;;;;;;5011762;28;20390;-67
2021/11/04 04:01:02;;;;;;;1.20;1.10;;;8.20;81.90;;;;;;5012256;28;20545;-67
2021/11/04 04:03:28;;;;;;;1.27;1.00;;;8.10;81.40;;;;;;5011230;28;20125;-65
2021/11/04 04:06:12;;;;;;;0.80;0.80;;;8.00;81.00;;;;;;5010738;28;20427;-66
2021/11/04 04:08:44;;;;;;;0.80;0.70;;;7.90;80.30;;;;;;5012579;28;20630;-67
2021/11/04 04:11:09;;;;;;;1.00;0.90;;;7.80;81.00;;;;;;5007181;28;20038;-67
2021/11/04 04:13:35;;;;;;;2.80;1.10;;;7.70;81.30;;;;;;5014932;28;20037;-66
2021/11/04 04:16:00;;;;;;;0.77;0.77;;;7.60;81.50;;;;;;5011103;28;20034;-66
2021/11/04 04:18:26;;;;;;;1.10;1.00;;;7.60;81.80;;;;;;5013079;28;20124;-66
2021/11/04 04:20:52;;;;;;;1.60;0.90;;;7.50;82.10;;;;;;5010849;28;20037;-66
2021/11/04 04:23:18;;;;;;;0.80;0.80;;;7.40;82.20;;;;;;5009172;28;20041;-66
2021/11/04 04:25:44;;;;;;;1.70;1.20;;;7.40;82.40;;;;;;5012174;28;20045;-67
2021/11/04 04:28:11;;;;;;;4.35;3.58;;;7.40;82.50;;;;;;5012770;28;20030;-67
2021/11/04 04:30:36;;;;;;;1.65;1.55;;;7.30;82.40;;;;;;5014576;28;20109;-67
2021/11/04 04:33:02;;;;;;;1.60;1.38;;;7.30;82.40;;;;;;5010609;28;20104;-66
2021/11/04 04:35:28;;;;;;;1.63;1.52;;;7.20;82.40;;;;;;5009392;28;20094;-66
2021/11/04 04:37:54;;;;;;;1.60;1.50;;;7.20;82.40;;;;;;5008123;28;20034;-66
2021/11/04 04:40:20;;;;;;;1.80;1.70;;;7.20;82.60;;;;;;5007115;28;20404;-66
2021/11/04 04:42:46;;;;;;;2.00;1.90;;;7.20;82.40;;;;;;5008397;28;20564;-67
2021/11/04 04:45:15;;;;;;;1.80;1.67;;;7.20;82.50;;;;;;5007056;28;20036;-66
2021/11/04 04:47:41;;;;;;;1.80;1.70;;;7.10;82.60;;;;;;5009958;28;20037;-66
2021/11/04 04:50:07;;;;;;;2.00;1.90;;;7.10;82.60;;;;;;5011535;28;20036;-66
2021/11/04 04:52:33;;;;;;;1.95;1.67;;;7.00;82.70;;;;;;5009382;28;20573;-66
2021/11/04 04:54:58;;;;;;;1.90;1.80;;;7.10;82.70;;;;;;5007100;28;20037;-66
2021/11/04 04:57:24;;;;;;;1.90;1.80;;;7.10;82.90;;;;;;5005216;28;20535;-67
2021/11/04 04:59:51;;;;;;;1.63;1.52;;;7.00;83.00;;;;;;5014262;28;20038;-66
2021/11/04 05:02:19;;;;;;;2.15;2.00;;;7.00;83.00;;;;;;4997764;28;20057;-66
2021/11/04 05:04:44;;;;;;;2.30;2.10;;;7.00;83.10;;;;;;5009948;28;20029;-66
2021/11/04 05:07:10;;;;;;;3.58;3.28;;;7.00;83.20;;;;;;5010198;28;20037;-67
2021/11/04 05:09:37;;;;;;;3.60;3.30;;;7.00;83.30;;;;;;5009132;28;20169;-66
2021/11/04 05:12:03;;;;;;;4.15;3.75;;;7.10;83.50;;;;;;5004669;28;20040;-66
2021/11/04 05:14:29;;;;;;;2.50;2.30;;;7.10;83.60;;;;;;5008619;28;20040;-67
2021/11/04 05:16:54;;;;;;;3.95;3.63;;;7.10;83.40;;;;;;5013980;28;20042;-66
2021/11/04 05:19:20;;;;;;;4.38;3.97;;;7.10;83.40;;;;;;5009387;28;20037;-66
2021/11/04 05:21:46;;;;;;;4.40;4.00;;;7.10;83.50;;;;;;5011599;28;20042;-66
2021/11/04 05:24:12;;;;;;;4.38;3.97;;;7.10;83.50;;;;;;5008196;28;20038;-66
2021/11/04 05:26:38;;;;;;;5.75;4.93;;;7.10;83.60;;;;;;5008498;28;20034;-66
2021/11/04 05:29:04;;;;;;;5.65;5.03;;;7.10;83.60;;;;;;5005839;28;20560;-66
2021/11/04 05:31:30;;;;;;;5.18;4.70;;;7.10;83.60;;;;;;5013671;28;20492;-66
2021/11/04 05:33:56;;;;;;;6.85;5.07;;;7.10;83.60;;;;;;5014430;28;20518;-66
2021/11/04 05:36:22;;;;;;;7.10;6.05;;;7.20;83.60;;;;;;5013579;28;20328;-66
2021/11/04 05:38:48;;;;;;;5.95;5.45;;;7.10;83.60;;;;;;5012234;28;20121;-67
2021/11/04 05:41:14;;;;;;;5.95;5.40;;;7.20;83.70;;;;;;5011299;28;20038;-67
2021/11/04 05:43:40;;;;;;;5.65;4.88;;;7.10;83.60;;;;;;5012472;28;20913;-67
2021/11/04 05:46:05;;;;;;;6.55;5.95;;;7.10;83.50;;;;;;5013894;28;20036;-67
2021/11/04 05:48:31;;;;;;;8.80;7.97;;;7.10;84.40;;;;;;5016547;28;20568;-67
2021/11/04 05:50:57;;;;;;;6.85;6.15;;;7.10;83.50;;;;;;5012365;28;20076;-66
2021/11/04 05:53:23;;;;;;;6.15;5.55;;;7.10;83.60;;;;;;5014741;28;20084;-67
2021/11/04 05:55:49;;;;;;;7.43;6.72;;;7.10;83.60;;;;;;5007111;28;20029;-66
2021/11/04 05:58:16;;;;;;;6.43;5.82;;;7.10;83.70;;;;;;5010132;28;20149;-67
2021/11/04 06:00:42;;;;;;;5.88;5.25;;;7.10;83.80;;;;;;5011135;28;20604;-67
2021/11/04 06:03:08;;;;;;;5.07;4.60;;;7.00;83.90;;;;;;5013284;28;20022;-66
2021/11/04 06:05:33;;;;;;;5.05;4.65;;;7.10;84.00;;;;;;5009819;28;20033;-66
2021/11/04 06:07:59;;;;;;;4.85;4.45;;;7.10;84.00;;;;;;5017025;28;20054;-67
2021/11/04 06:10:25;;;;;;;4.97;4.38;;;7.10;84.00;;;;;;5008529;28;20088;-66
2021/11/04 06:12:50;;;;;;;4.70;4.30;;;7.10;83.90;;;;;;5012340;28;20133;-66
2021/11/04 06:15:16;;;;;;;4.00;3.70;;;7.10;83.80;;;;;;5011096;28;20423;-67
2021/11/04 06:17:42;;;;;;;4.78;4.38;;;7.00;83.80;;;;;;5015670;28;20183;-67
2021/11/04 06:20:08;;;;;;;6.72;4.30;;;7.00;83.90;;;;;;5009731;28;20527;-67
2021/11/04 06:22:34;;;;;;;4.80;4.20;;;7.00;83.90;;;;;;5014750;28;20582;-67
2021/11/04 06:25:00;;;;;;;5.32;4.82;;;7.00;83.80;;;;;;5010755;28;20033;-66
2021/11/04 06:27:26;;;;;;;5.78;5.10;;;7.00;84.00;;;;;;5011218;28;20029;-64
2021/11/04 06:29:51;;;;;;;5.40;4.90;;;7.00;84.10;;;;;;5010403;28;20041;-66
2021/11/04 06:32:17;;;;;;;5.60;5.10;;;7.00;84.10;;;;;;5010491;28;20207;-66
2021/11/04 06:34:43;;;;;;;5.57;5.07;;;7.10;84.20;;;;;;5010136;28;20042;-66
2021/11/04 06:37:08;;;;;;;4.43;4.03;;;7.10;84.30;;;;;;5008973;28;20041;-67
2021/11/04 06:39:34;;;;;;;5.05;4.65;;;7.10;84.10;;;;;;5013164;28;20041;-67
2021/11/04 06:42:00;;;;;;;4.40;4.03;;;7.10;84.10;;;;;;5012542;28;20045;-67
2021/11/04 06:44:25;;;;;;;4.70;4.30;;;7.10;84.10;;;;;;5011670;28;20083;-67
2021/11/04 06:46:59;;;;;;;4.30;3.97;;;7.10;84.10;;;;;;5012533;28;20034;-67
2021/11/04 06:49:25;;;;;;;5.25;3.75;;;7.10;84.20;;;;;;5014126;28;20045;-67
2021/11/04 06:51:54;;;;;;;3.60;3.30;;;7.10;84.10;;;;;;5009972;28;20049;-67
2021/11/04 06:54:23;;;;;;;3.65;3.35;;;7.10;84.10;;;;;;5009604;28;20065;-65
2021/11/04 06:56:50;;;;;;;3.30;3.00;;;7.10;84.10;;;;;;5010242;28;20033;-66
2021/11/04 06:59:25;;;;;;;3.30;3.10;;;7.10;84.00;;;;;;5011858;28;21119;-67
2021/11/04 07:01:54;;;;;;;3.70;3.40;;;7.10;84.20;;;;;;5011560;28;20034;-67
2021/11/04 07:04:41;;;;;;;3.20;3.00;;;7.10;84.10;;;;;;5011983;28;20124;-65
2021/11/04 07:07:09;;;;;;;3.45;3.15;;;7.10;84.40;;;;;;5008034;28;20452;-67
2021/11/04 07:09:37;;;;;;;3.10;2.90;;;7.10;84.20;;;;;;5011089;28;20046;-67
2021/11/04 07:12:04;;;;;;;10.82;7.00;;;7.10;84.10;;;;;;5006388;28;20437;-66
2021/11/04 07:14:32;;;;;;;4.57;4.10;;;7.10;84.10;;;;;;5016516;28;20076;-67
2021/11/04 07:16:59;;;;;;;6.47;5.07;;;7.10;84.20;;;;;;5018477;28;20029;-67
2021/11/04 07:19:26;;;;;;;5.35;4.85;;;7.10;84.20;;;;;;5019289;28;20072;-67
2021/11/04 07:22:18;;;;;;;4.93;4.40;;;7.10;84.30;;;;;;5019713;28;20099;-67
2021/11/04 07:24:46;;;;;;;3.70;3.40;;;7.10;84.40;;;;;;5018286;28;20034;-67
2021/11/04 07:27:24;;;;;;;4.55;4.00;;;7.20;84.30;;;;;;5019680;28;20033;-67
2021/11/04 07:29:52;;;;;;;4.43;4.03;;;7.20;84.40;;;;;;5016808;28;20050;-67
2021/11/04 07:32:17;;;;;;;4.03;3.63;;;7.20;84.30;;;;;;5018063;28;20171;-67
2021/11/04 07:34:45;;;;;;;4.35;3.95;;;7.20;84.30;;;;;;5017839;28;20128;-67
2021/11/04 07:37:13;;;;;;;7.30;5.45;;;7.20;84.40;;;;;;5018347;28;20508;-67
2021/11/04 07:39:41;;;;;;;5.18;4.68;;;7.20;84.60;;;;;;5019534;28;20033;-67
2021/11/04 07:42:08;;;;;;;4.38;3.97;;;7.20;84.70;;;;;;5019727;28;20168;-67
2021/11/04 07:44:35;;;;;;;4.13;3.75;;;7.30;85.70;;;;;;5018074;28;20412;-67
2021/11/04 07:47:03;;;;;;;4.57;4.18;;;7.30;84.70;;;;;;5019299;28;20034;-67
2021/11/04 07:49:29;;;;;;;4.85;3.97;;;7.30;84.70;;;;;;5018835;28;20033;-67
2021/11/04 07:52:00;;;;;;;4.50;4.10;;;7.30;84.70;;;;;;5020314;28;20034;-67
2021/11/04 07:54:26;;;;;;;4.60;4.20;;;7.30;84.70;;;;;;5014377;28;20030;-67
2021/11/04 07:56:51;;;;;;;4.20;3.80;;;7.40;84.80;;;;;;5014209;28;20087;-67
2021/11/04 07:59:17;;;;;;;7.13;5.55;;;7.40;84.60;;;;;;5013172;28;20034;-67
2021/11/04 08:01:43;;;;;;;7.68;6.10;;;7.40;84.70;;;;;;5017716;28;21538;-67
2021/11/04 08:04:08;;;;;;;6.90;5.30;;;7.40;84.70;;;;;;5013209;28;20030;-66
2021/11/04 08:06:34;;;;;;;7.18;5.85;;;7.50;84.70;;;;;;5016399;28;20040;-67
2021/11/04 08:09:02;;;;;;;6.80;5.55;;;7.50;84.50;;;;;;5014939;28;20125;-66
2021/11/04 08:11:31;;;;;;;5.82;4.15;;;7.50;84.40;;;;;;5012674;28;20117;-67
2021/11/04 08:13:56;;;;;;;6.20;4.80;;;7.50;84.40;;;;;;5014324;28;20034;-67
2021/11/04 08:16:22;;;;;;;9.18;5.57;;;7.60;84.50;;;;;;5016459;28;20576;-67
2021/11/04 08:18:48;;;;;;;9.13;5.70;;;7.50;84.30;;;;;;5018976;28;20586;-67
2021/11/04 08:21:13;;;;;;;11.57;7.38;;;7.60;84.30;;;;;;5017616;28;20030;-67
2021/11/04 08:23:39;;;;;;;7.78;5.28;;;7.60;84.30;;;;;;5016733;28;20308;-67
2021/11/04 08:26:06;;;;;;;4.78;4.28;;;7.60;84.00;;;;;;5016456;28;20068;-67
2021/11/04 08:28:32;;;;;;;9.02;6.13;;;7.60;83.80;;;;;;5011217;28;20389;-67
2021/11/04 08:30:57;;;;;;;8.40;5.78;;;7.60;84.00;;;;;;5016277;28;20040;-67
2021/11/04 08:33:23;;;;;;;13.55;8.05;;;7.60;84.00;;;;;;5012481;28;20034;-67
2021/11/04 08:35:50;;;;;;;8.13;5.75;;;7.60;84.10;;;;;;5015506;28;20749;-67
2021/11/04 08:38:16;;;;;;;8.38;5.85;;;7.60;84.10;;;;;;5011336;28;20075;-67
2021/11/04 08:40:43;;;;;;;7.00;5.10;;;7.60;84.10;;;;;;5013924;28;20061;-67
2021/11/04 08:43:09;;;;;;;8.68;6.65;;;7.60;84.30;;;;;;5017145;28;20091;-66
2021/11/04 08:45:35;;;;;;;5.70;5.10;;;7.60;84.30;;;;;;5013384;28;20029;-66
2021/11/04 08:48:01;;;;;;;6.72;5.90;;;7.70;84.30;;;;;;5014585;28;20073;-67
2021/11/04 08:50:27;;;;;;;10.80;7.68;;;7.70;84.30;;;;;;5010536;28;21133;-67
2021/11/04 08:52:54;;;;;;;6.40;5.65;;;7.70;84.40;;;;;;5016231;28;20405;-66
2021/11/04 08:55:21;;;;;;;8.32;6.25;;;7.70;84.30;;;;;;5011077;28;20100;-66
2021/11/04 08:57:46;;;;;;;7.18;6.45;;;7.80;84.30;;;;;;5011280;28;20068;-66
2021/11/04 09:00:13;;;;;;;6.82;5.95;;;7.80;84.20;;;;;;5014195;28;20070;-67
2021/11/04 09:02:39;;;;;;;10.13;6.72;;;7.80;84.00;;;;;;5013824;28;20037;-67
2021/11/04 09:05:09;;;;;;;6.45;4.88;;;7.80;83.80;;;;;;5009775;28;20037;-67
2021/11/04 09:07:39;;;;;;;4.85;4.10;;;7.80;83.70;;;;;;5016223;28;20040;-66
2021/11/04 09:10:07;;;;;;;5.85;5.00;;;7.80;83.50;;;;;;5010204;28;20037;-66
2021/11/04 09:12:33;;;;;;;11.60;7.30;;;7.80;83.40;;;;;;5006975;28;20540;-67
2021/11/04 09:14:58;;;;;;;6.32;5.13;;;7.80;83.60;;;;;;5013247;28;20400;-66
2021/11/04 09:17:24;;;;;;;5.68;4.90;;;7.80;83.60;;;;;;5016809;28;20030;-67
2021/11/04 09:19:51;;;;;;;5.60;4.38;;;7.80;83.60;;;;;;5014781;28;20084;-67
2021/11/04 09:22:19;;;;;;;4.88;4.30;;;7.80;83.50;;;;;;5014990;28;20046;-67
2021/11/04 09:24:46;;;;;;;4.68;3.80;;;7.80;83.40;;;;;;5012640;28;20148;-67
2021/11/04 09:27:11;;;;;;;4.30;3.90;;;7.80;83.40;;;;;;5010026;28;20034;-67
2021/11/04 09:29:38;;;;;;;4.18;3.78;;;7.80;83.30;;;;;;5013314;28;20041;-66
2021/11/04 09:32:06;;;;;;;4.20;3.80;;;7.80;83.30;;;;;;5012060;28;20053;-66
2021/11/04 09:34:33;;;;;;;4.18;3.78;;;7.80;83.40;;;;;;5012377;28;20378;-67
2021/11/04 09:36:59;;;;;;;3.90;3.50;;;7.80;83.40;;;;;;5009829;28;20053;-66
2021/11/04 09:39:24;;;;;;;3.90;3.60;;;7.80;83.40;;;;;;5012823;28;20041;-67
2021/11/04 09:41:50;;;;;;;3.20;2.90;;;7.80;83.40;;;;;;5010642;28;20030;-67
2021/11/04 09:44:18;;;;;;;3.30;3.00;;;7.80;83.30;;;;;;5013345;28;20124;-66
2021/11/04 09:46:44;;;;;;;4.03;3.63;;;7.80;83.40;;;;;;5014620;28;20067;-67
2021/11/04 09:49:10;;;;;;;20.30;10.95;;;7.80;83.40;;;;;;5017261;28;20502;-67
2021/11/04 09:51:36;;;;;;;4.75;4.03;;;7.80;83.10;;;;;;5012660;28;20038;-66
2021/11/04 09:54:02;;;;;;;4.35;3.65;;;7.80;83.20;;;;;;5013745;28;20113;-67
2021/11/04 09:56:29;;;;;;;7.30;5.47;;;7.80;83.10;;;;;;5009643;28;20041;-66
2021/11/04 09:58:55;;;;;;;2.60;2.40;;;7.90;83.30;;;;;;5015030;28;20034;-67
2021/11/04 10:01:25;;;;;;;4.28;3.88;;;7.90;83.20;;;;;;5015328;28;20033;-67
2021/11/04 10:03:55;;;;;;;2.50;2.30;;;7.90;83.10;;;;;;5016312;28;20030;-67
2021/11/04 10:06:28;;;;;;;3.00;2.80;;;7.90;83.00;;;;;;5014294;28;20076;-67
2021/11/04 10:08:58;;;;;;;2.60;2.40;;;7.90;83.10;;;;;;5013512;28;20194;-67
2021/11/04 10:11:29;;;;;;;2.65;2.30;;;7.90;83.20;;;;;;5009483;28;20041;-67
2021/11/04 10:14:02;;;;;;;2.20;2.05;;;8.00;83.10;;;;;;5010721;28;20033;-67
2021/11/04 10:16:28;;;;;;;5.38;2.38;;;8.00;82.90;;;;;;5009044;28;20045;-67
2021/11/04 10:18:54;;;;;;;2.80;2.60;;;8.00;82.90;;;;;;5011602;28;20079;-67
2021/11/04 10:21:24;;;;;;;2.90;2.70;;;8.00;82.80;;;;;;5013753;28;20037;-67
2021/11/04 10:23:50;;;;;;;2.60;2.40;;;8.00;82.80;;;;;;5014978;28;20359;-67
2021/11/04 10:26:19;;;;;;;2.90;2.70;;;8.00;83.80;;;;;;5010987;28;20182;-67
2021/11/04 10:28:48;;;;;;;2.88;2.67;;;8.00;82.90;;;;;;5011237;28;20065;-67
2021/11/04 10:31:19;;;;;;;2.97;2.78;;;8.00;82.80;;;;;;5011257;28;20060;-66
2021/11/04 10:33:48;;;;;;;2.72;2.53;;;8.00;82.80;;;;;;5010303;28;20548;-67
2021/11/04 10:36:21;;;;;;;2.50;2.30;;;8.00;82.90;;;;;;5012300;28;20041;-67
2021/11/04 10:38:47;;;;;;;2.60;2.40;;;8.10;83.00;;;;;;5014120;28;20034;-67
2021/11/04 10:41:31;;;;;;;2.72;2.53;;;8.10;83.10;;;;;;5017478;28;20095;-67
2021/11/04 10:44:04;;;;;;;3.13;2.75;;;8.10;83.10;;;;;;5014140;28;20041;-67
2021/11/04 10:46:30;;;;;;;2.70;2.50;;;8.10;83.00;;;;;;5017988;28;20087;-67
2021/11/04 10:49:02;;;;;;;3.15;2.70;;;8.10;83.10;;;;;;5015381;28;20464;-67
2021/11/04 10:51:35;;;;;;;2.70;2.50;;;8.10;83.10;;;;;;5013334;28;20566;-67
2021/11/04 10:54:04;;;;;;;3.03;2.83;;;8.10;83.10;;;;;;5017437;28;20042;-67
2021/11/04 10:56:32;;;;;;;3.20;2.42;;;8.20;83.10;;;;;;5014906;28;20040;-64
2021/11/04 10:58:57;;;;;;;2.70;2.50;;;8.20;83.20;;;;;;5017060;28;20041;-67
2021/11/04 11:01:46;;;;;;;2.50;2.30;;;8.20;83.10;;;;;;5014482;28;20518;-67
2021/11/04 11:04:11;;;;;;;2.50;2.30;;;8.20;82.90;;;;;;5019580;28;20095;-67
2021/11/04 11:06:40;;;;;;;2.33;2.13;;;8.20;82.90;;;;;;5013352;28;20045;-67
2021/11/04 11:09:10;;;;;;;2.45;2.10;;;8.20;83.00;;;;;;5016752;28;20034;-67
2021/11/04 11:11:42;;;;;;;2.00;1.90;;;8.20;82.90;;;;;;5009591;28;20041;-66
2021/11/04 11:14:08;;;;;;;3.70;2.35;;;8.20;82.80;;;;;;5017560;28;20041;-67
2021/11/04 11:16:38;;;;;;;2.30;2.10;;;8.20;82.90;;;;;;5013575;28;20064;-67
2021/11/04 11:19:05;;;;;;;2.40;2.20;;;8.20;82.80;;;;;;5021060;28;20045;-66
2021/11/04 11:21:38;;;;;;;2.42;2.22;;;8.20;82.70;;;;;;5015338;28;20076;-67
2021/11/04 11:24:05;;;;;;;1.95;1.63;;;8.20;82.70;;;;;;5017756;28;20540;-68
2021/11/04 11:26:31;;;;;;;1.20;1.10;;;8.20;82.70;;;;;;5018870;28;20040;-67
2021/11/04 11:28:59;;;;;;;1.42;1.33;;;8.20;82.20;;;;;;5018143;28;20042;-67
2021/11/04 11:31:26;;;;;;;1.27;1.17;;;8.20;82.20;;;;;;5013355;28;20099;-66
2021/11/04 11:34:11;;;;;;;1.00;0.90;;;8.20;82.20;;;;;;5019330;28;20061;-67
2021/11/04 11:36:39;;;;;;;0.80;0.80;;;8.20;81.30;;;;;;5015994;28;20448;-66
2021/11/04 11:39:11;;;;;;;0.65;0.65;;;8.20;81.60;;;;;;5011281;28;20046;-67
2021/11/04 11:41:52;;;;;;;0.73;0.73;;;8.20;81.80;;;;;;5014665;28;20030;-66
2021/11/04 11:44:40;;;;;;;1.05;0.80;;;8.20;81.70;;;;;;5014041;28;20037;-67
2021/11/04 11:47:08;;;;;;;0.60;0.60;;;8.20;81.70;;;;;;5018767;28;20030;-67
2021/11/04 11:49:35;;;;;;;0.85;0.70;;;8.20;81.30;;;;;;5015263;28;20038;-65
2021/11/04 11:52:00;;;;;;;1.30;0.85;;;8.10;81.60;;;;;;5017853;28;20087;-67
2021/11/04 11:54:58;;;;;;;1.10;1.00;;;8.10;82.60;;;;;;5018005;28;20041;-67
2021/11/04 11:57:24;;;;;;;1.00;1.00;;;8.20;82.10;;;;;;5018760;28;20056;-66
2021/11/04 11:59:54;;;;;;;2.10;0.90;;;8.20;82.20;;;;;;5019088;28;20026;-66
2021/11/04 12:02:54;;;;;;;1.10;0.90;;;8.20;82.10;;;;;;5019232;28;20044;-68
2021/11/04 12:05:20;;;;;;;1.25;1.15;;;8.20;82.00;;;;;;5008119;28;20065;-66
2021/11/04 12:07:47;;;;;;;1.30;1.20;;;8.20;82.20;;;;;;5019227;28;20058;-66
2021/11/04 12:10:31;;;;;;;3.38;2.80;;;8.20;82.20;;;;;;5017177;28;20063;-67
2021/11/04 12:12:59;;;;;;;2.30;2.10;;;8.30;82.60;;;;;;5019205;28;20072;-67
2021/11/04 12:15:25;;;;;;;1.80;1.70;;;8.30;82.70;;;;;;5018270;28;20030;-66
2021/11/04 12:18:10;;;;;;;2.08;1.98;;;8.30;82.60;;;;;;5018377;28;20038;-67
2021/11/04 12:20:36;;;;;;;2.40;2.20;;;8.40;82.40;;;;;;5018298;28;20497;-67
2021/11/04 12:23:02;;;;;;;4.22;2.28;;;8.40;82.60;;;;;;5019599;28;20049;-67
2021/11/04 12:25:29;;;;;;;3.00;2.67;;;8.40;82.50;;;;;;5017130;28;20124;-67
2021/11/04 12:28:00;;;;;;;2.92;2.72;;;8.40;82.50;;;;;;5018796;28;20513;-67
2021/11/04 12:30:28;;;;;;;3.40;3.15;;;8.50;82.60;;;;;;5018883;28;20072;-67
2021/11/04 12:32:58;;;;;;;4.00;3.33;;;8.50;82.60;;;;;;5019110;28;20033;-67
2021/11/04 12:35:25;;;;;;;4.50;4.03;;;8.50;82.50;;;;;;5018355;28;20026;-64
2021/11/04 12:37:50;;;;;;;9.20;7.38;;;8.50;82.50;;;;;;5017505;28;20042;-67
2021/11/04 12:40:16;;;;;;;8.35;6.95;;;8.50;82.60;;;;;;5020258;28;20040;-67
2021/11/04 12:42:45;;;;;;;7.05;6.35;;;8.50;82.70;;;;;;5018536;28;20037;-66
2021/11/04 12:45:23;;;;;;;4.85;4.35;;;8.60;82.70;;;;;;5018542;28;20037;-67
2021/11/04 12:48:02;;;;;;;6.90;5.85;;;8.60;82.80;;;;;;5018012;28;20026;-67
2021/11/04 12:50:29;;;;;;;5.93;5.32;;;8.60;82.90;;;;;;5018809;28;20633;-67
2021/11/04 12:53:06;;;;;;;6.10;4.75;;;8.60;82.90;;;;;;5012371;28;20119;-67
2021/11/04 12:55:32;;;;;;;7.88;6.63;;;8.70;82.90;;;;;;5017332;28;20096;-67
2021/11/04 12:58:00;;;;;;;5.78;5.15;;;8.70;82.90;;;;;;5015499;28;20033;-66
2021/11/04 13:00:25;;;;;;;5.30;4.30;;;8.70;83.00;;;;;;5015978;28;20583;-67
2021/11/04 13:02:51;;;;;;;4.50;4.10;;;8.80;83.10;;;;;;5018842;28;20129;-67